Etusivu
METAR-TAF:

METAR-TAF

Lentoasemat :

Alattion lentoasema

Alattio, Norja

Leveyspiiri: 69-59N, Pituuspiiri: 023-22E, korkeus merenpinnasta: 0 m

Tämänhetkinen sää

Tämä raportti tehtiin 16 minuuttia sitten, kello 01.50 UTC
Tuuli 10 kn etelästä/kaakosta
Lämpötila 7°C
Kosteus 81%
Ilmanpaine 1020 hPa
Näkyvyys 10 km tai enemmän

METAR: ENAT 280150Z AUTO 15010KT 9999 R11///// R29/P2000N // OVC019/// 07/04 Q1020 RMK WIND 700FT 15011KT

Aika: 04:06 (02:06 UTC)

Sääennuste

Tämä raportti tehtiin 9 tuntia ja 6 minuuttia sitten, kello 17.00 UTC
Ennuste voimassa 27. päivästä klo 18 UTC - 27. päivään klo 22 UTC
Tuuli 8 kn etelästä/kaakosta
Näkyvyys 10 km tai enemmän
ei pilviä alle 1500 m:ssä eikä cumulonimbus-pilviä

TAF: ENAT 271700Z 2718/2722 16008KT CAVOK

Säähavainnot ja -ennusteet yli 4000 lentoasemalta (METAR- ja TAF-raportit).

Käytössä olevat sääasemat on merkitty karttaan keltaisilla ja punaisilla pisteillä.

Aseta hiiri pisteen päälle nähdäksesi sääaseman nimen.

Klikkaa sitten nähdäksesi säähavainnot ja -ennusteet.

Kartan vaihtaminen: klikkaa mustalla rastilla varustettuja vihreitä pisteitä, niin voit zoomata sisään; viivalla varustettua vihreää pistettä, niin voit zoomata ulos tai vihreitä nuolia, niin pääset viereisille kartoille.


METAR-TAF: